createdAt,value
2022-08-03T00:02:23.891Z,20.90
2022-08-03T00:07:26.444Z,20.90
2022-08-03T00:12:28.853Z,20.90
2022-08-03T00:17:31.303Z,20.90
2022-08-03T00:22:53.646Z,20.90
2022-08-03T00:27:56.128Z,20.90
2022-08-03T00:32:59.257Z,20.90
2022-08-03T00:38:01.985Z,20.90
2022-08-03T00:43:07.889Z,20.80
2022-08-03T00:48:19.454Z,20.80
2022-08-03T00:53:36.574Z,20.80
2022-08-03T00:58:39.041Z,20.80
2022-08-03T01:03:41.911Z,20.80
2022-08-03T01:08:50.302Z,20.80
2022-08-03T01:14:18.022Z,20.80
2022-08-03T01:19:40.628Z,20.80
2022-08-03T01:24:58.159Z,20.80
2022-08-03T01:30:04.240Z,20.80
2022-08-03T01:35:12.642Z,20.80
2022-08-03T01:40:16.240Z,20.80
2022-08-03T01:45:20.967Z,20.80
2022-08-03T01:50:27.805Z,20.80
2022-08-03T01:55:33.435Z,20.80
2022-08-03T02:00:37.730Z,20.80
2022-08-03T02:05:41.133Z,20.80
2022-08-03T02:10:46.273Z,20.80
2022-08-03T02:15:49.526Z,20.80
2022-08-03T02:20:52.886Z,20.80
2022-08-03T02:26:01.825Z,20.80
2022-08-03T02:31:12.978Z,20.80
2022-08-03T02:36:18.447Z,20.80
2022-08-03T02:41:25.369Z,20.90
2022-08-03T02:46:33.018Z,20.80
2022-08-03T02:51:37.585Z,20.90
2022-08-03T02:56:41.288Z,20.90
2022-08-03T03:01:45.343Z,20.90
2022-08-03T03:06:49.167Z,20.90
2022-08-03T03:11:53.428Z,20.90
2022-08-03T03:16:58.001Z,20.90
2022-08-03T03:22:02.397Z,20.90
2022-08-03T03:27:05.321Z,20.90
2022-08-03T03:32:08.357Z,20.90
2022-08-03T03:37:13.259Z,20.90
2022-08-03T03:42:16.518Z,20.90
2022-08-03T03:47:19.184Z,20.90
2022-08-03T03:52:35.510Z,20.90
2022-08-03T03:57:38.039Z,20.90
2022-08-03T04:02:40.541Z,21.00
2022-08-03T04:08:13.214Z,21.00
2022-08-03T04:13:17.116Z,21.00
2022-08-03T04:18:20.709Z,21.00
2022-08-03T04:23:27.282Z,21.10
2022-08-03T04:28:32.575Z,21.10
2022-08-03T04:33:38.575Z,21.20
2022-08-03T04:38:54.441Z,21.20
2022-08-03T04:44:00.434Z,21.20
2022-08-03T04:49:03.578Z,21.20
2022-08-03T04:54:07.453Z,21.20
2022-08-03T04:59:10.883Z,21.20
2022-08-03T05:04:13.546Z,21.20
2022-08-03T05:09:46.064Z,21.20
2022-08-03T05:14:39.159Z,21.30
2022-08-03T05:19:41.687Z,21.30
2022-08-03T05:24:44.237Z,21.40
2022-08-03T05:29:47.954Z,21.30
2022-08-03T05:34:50.494Z,21.30
2022-08-03T05:39:52.944Z,21.40
2022-08-03T05:44:55.399Z,21.50
2022-08-03T05:49:58.981Z,21.50
2022-08-03T05:55:01.474Z,21.50
2022-08-03T06:00:07.204Z,21.30
2022-08-03T06:05:13.966Z,21.30
2022-08-03T06:10:37.409Z,21.40
2022-08-03T06:15:38.971Z,21.40
2022-08-03T06:20:41.386Z,21.50
2022-08-03T06:25:44.002Z,21.60
2022-08-03T06:30:46.937Z,21.80
2022-08-03T06:35:52.605Z,21.80
2022-08-03T06:40:55.385Z,22.00
2022-08-03T06:45:57.882Z,22.10
2022-08-03T06:51:00.307Z,22.00
2022-08-03T06:56:04.446Z,22.30
2022-08-03T07:01:06.998Z,22.50
2022-08-03T07:06:09.493Z,22.50
2022-08-03T07:11:11.905Z,22.50
2022-08-03T07:16:14.470Z,22.50
2022-08-03T07:21:17.136Z,22.60
2022-08-03T07:26:19.570Z,22.90
2022-08-03T07:31:22.058Z,23.00
2022-08-03T07:36:25.071Z,23.20
2022-08-03T07:41:27.593Z,23.50
2022-08-03T07:46:30.052Z,23.30
2022-08-03T07:51:32.964Z,23.90
2022-08-03T07:56:35.477Z,24.10
2022-08-03T08:01:38.824Z,24.10
2022-08-03T08:06:41.432Z,24.40
2022-08-03T08:11:44.008Z,24.60
2022-08-03T08:16:48.011Z,24.70
2022-08-03T08:21:53.417Z,25.00
2022-08-03T08:27:04.737Z,25.10
2022-08-03T08:32:08.109Z,25.00
2022-08-03T08:37:10.572Z,25.40
2022-08-03T08:42:13.051Z,25.50
2022-08-03T08:47:16.027Z,25.50
2022-08-03T08:52:29.495Z,25.50
2022-08-03T08:57:43.128Z,25.60
2022-08-03T09:02:46.821Z,25.90
2022-08-03T09:07:50.055Z,26.10
2022-08-03T09:12:53.414Z,25.00
2022-08-03T09:17:57.813Z,24.80
2022-08-03T09:23:51.835Z,25.40
2022-08-03T09:28:58.081Z,25.50
2022-08-03T09:34:10.839Z,24.60
2022-08-03T09:39:19.158Z,25.20
2022-08-03T09:44:34.946Z,24.40
2022-08-03T09:49:41.049Z,25.00
2022-08-03T09:54:43.818Z,25.10
2022-08-03T09:59:46.291Z,25.00
2022-08-03T10:04:51.096Z,25.30
2022-08-03T10:10:31.080Z,25.30
2022-08-03T10:16:21.600Z,26.50
2022-08-03T10:20:59.235Z,26.70
2022-08-03T10:26:04.940Z,26.80
2022-08-03T10:31:09.870Z,26.50
2022-08-03T10:36:14.925Z,27.50
2022-08-03T10:41:19.856Z,27.60
2022-08-03T10:46:22.509Z,26.80
2022-08-03T10:51:30.550Z,27.50
2022-08-03T10:56:51.558Z,27.60
2022-08-03T11:01:59.799Z,27.60
2022-08-03T11:07:23.607Z,27.00
2022-08-03T11:12:32.638Z,27.00
2022-08-03T11:17:46.150Z,27.50
2022-08-03T11:23:01.091Z,27.20
2022-08-03T11:28:27.189Z,26.70
2022-08-03T11:33:30.872Z,25.80
2022-08-03T11:38:33.353Z,26.00
2022-08-03T11:43:37.438Z,26.80
2022-08-03T11:48:43.490Z,27.60
2022-08-03T11:53:47.865Z,27.70
2022-08-03T11:59:15.214Z,27.00
2022-08-03T12:04:16.488Z,27.90
2022-08-03T12:09:21.206Z,27.70
2022-08-03T12:14:48.825Z,28.00
2022-08-03T12:19:46.594Z,28.10
2022-08-03T12:24:49.020Z,28.50
2022-08-03T12:29:58.638Z,26.90
2022-08-03T12:35:04.425Z,27.50
2022-08-03T12:40:10.519Z,28.20
2022-08-03T12:45:26.896Z,28.80
2022-08-03T12:50:33.228Z,28.70
2022-08-03T12:55:57.284Z,28.30
2022-08-03T13:01:09.965Z,27.70
2022-08-03T13:06:18.576Z,28.10
2022-08-03T13:11:52.502Z,27.90
2022-08-03T13:16:49.329Z,28.40
2022-08-03T13:22:03.138Z,29.00
2022-08-03T13:27:58.910Z,29.00
2022-08-03T13:32:30.607Z,28.50
2022-08-03T13:37:33.235Z,29.00
2022-08-03T13:42:36.724Z,28.80
2022-08-03T13:47:39.519Z,29.30
2022-08-03T13:52:42.147Z,29.50
2022-08-03T13:58:12.078Z,28.00
2022-08-03T14:03:14.180Z,28.00
2022-08-03T14:08:17.179Z,29.10
2022-08-03T14:13:19.710Z,29.40
2022-08-03T14:18:29.118Z,29.60
2022-08-03T14:23:38.004Z,29.80
2022-08-03T14:28:41.212Z,28.90
2022-08-03T14:33:43.624Z,28.50
2022-08-03T14:38:46.445Z,28.70
2022-08-03T14:44:01.669Z,28.80
2022-08-03T14:50:36.290Z,28.80
2022-08-03T14:54:31.012Z,28.60
2022-08-03T14:59:56.752Z,29.10
2022-08-03T15:04:56.521Z,28.70
2022-08-03T15:09:59.702Z,27.50
2022-08-03T15:15:05.125Z,28.50
2022-08-03T15:20:23.405Z,28.80
2022-08-03T15:26:03.694Z,28.30
2022-08-03T15:30:53.959Z,28.60
2022-08-03T15:35:56.675Z,28.70
2022-08-03T15:40:59.695Z,28.60
2022-08-03T15:46:28.303Z,28.50
2022-08-03T15:51:24.680Z,27.50
2022-08-03T15:56:27.622Z,27.50
2022-08-03T16:01:30.608Z,27.30
2022-08-03T16:06:35.782Z,27.80
2022-08-03T16:11:38.948Z,27.70
2022-08-03T16:16:41.643Z,27.10
2022-08-03T16:21:48.712Z,27.30
2022-08-03T16:26:52.901Z,27.90
2022-08-03T16:31:55.481Z,27.70
2022-08-03T16:36:57.956Z,27.80
2022-08-03T16:42:01.692Z,27.90
2022-08-03T16:47:04.493Z,27.90
2022-08-03T16:52:07.238Z,27.10
2022-08-03T16:57:09.929Z,27.50
2022-08-03T17:02:22.250Z,27.60
2022-08-03T17:07:29.655Z,27.30
2022-08-03T17:12:33.097Z,26.90
2022-08-03T17:17:37.558Z,26.70
2022-08-03T17:22:59.656Z,26.30
2022-08-03T17:28:49.200Z,26.20
2022-08-03T17:33:26.972Z,26.00
2022-08-03T17:38:40.434Z,26.10
2022-08-03T17:44:15.186Z,26.20
2022-08-03T17:49:24.886Z,26.00
2022-08-03T17:55:57.043Z,25.80
2022-08-03T18:02:00.628Z,26.10
2022-08-03T18:06:38.029Z,25.90
2022-08-03T18:12:01.624Z,25.80
2022-08-03T18:22:30.563Z,25.50
2022-08-03T18:27:45.436Z,25.20
2022-08-03T18:33:00.753Z,25.10
2022-08-03T18:38:04.076Z,24.80
2022-08-03T18:43:12.992Z,24.60
2022-08-03T18:48:46.410Z,24.40
2022-08-03T18:54:03.339Z,24.00
2022-08-03T18:59:30.832Z,23.80
2022-08-03T19:04:44.152Z,23.60
2022-08-03T19:09:58.514Z,23.40
2022-08-03T19:20:09.584Z,23.00
2022-08-03T19:25:12.242Z,22.80
2022-08-03T19:30:35.812Z,22.60
2022-08-03T19:35:51.105Z,22.50
2022-08-03T19:41:03.984Z,22.40
2022-08-03T19:51:16.820Z,22.20
2022-08-03T19:56:24.153Z,22.10
2022-08-03T20:01:28.158Z,22.00
2022-08-03T20:06:31.977Z,21.90
2022-08-03T20:11:43.695Z,21.70
2022-08-03T20:16:58.461Z,21.50
2022-08-03T20:22:01.402Z,21.30
2022-08-03T20:27:08.385Z,21.20
2022-08-03T20:32:10.914Z,21.10
2022-08-03T20:37:13.574Z,21.10
2022-08-03T20:47:50.742Z,20.90
2022-08-03T20:52:54.693Z,21.00
2022-08-03T20:57:59.592Z,20.80
2022-08-03T21:03:02.717Z,20.80
2022-08-03T21:08:07.518Z,20.80
2022-08-03T21:13:05.638Z,25.70
2022-08-03T21:13:07.251Z,21.00
2022-08-03T21:13:28.497Z,20.80
2022-08-03T21:18:35.096Z,20.60
2022-08-03T21:23:48.121Z,20.50
2022-08-03T21:28:55.468Z,20.50
2022-08-03T21:34:01.614Z,20.90
2022-08-03T21:39:08.491Z,20.90
2022-08-03T21:44:11.264Z,20.70
2022-08-03T21:50:04.749Z,20.60
2022-08-03T21:54:42.416Z,20.70
2022-08-03T21:59:57.113Z,20.70
2022-08-03T22:04:59.630Z,20.70
2022-08-03T22:10:05.231Z,20.80
2022-08-03T22:15:11.112Z,21.00
2022-08-03T22:20:15.117Z,21.00
2022-08-03T22:25:18.085Z,20.80
2022-08-03T22:30:20.813Z,21.00
2022-08-03T22:35:26.011Z,21.00
2022-08-03T22:40:28.842Z,21.20
2022-08-03T22:46:08.486Z,21.10
2022-08-03T22:50:55.881Z,21.20
2022-08-03T22:55:58.736Z,21.10
2022-08-03T23:01:07.646Z,21.10
2022-08-03T23:06:10.686Z,21.10
2022-08-03T23:11:15.374Z,21.30
2022-08-03T23:16:28.791Z,21.20
2022-08-03T23:21:53.466Z,21.30
2022-08-03T23:26:56.691Z,21.30
2022-08-03T23:32:01.839Z,21.30
2022-08-03T23:37:05.939Z,21.40
2022-08-03T23:42:10.166Z,21.40
2022-08-03T23:47:13.726Z,21.50
2022-08-03T23:52:22.000Z,21.50
2022-08-03T23:57:40.878Z,21.50
